createdAt,value
2023-04-26T00:06:19.225Z,19.40
2023-04-26T00:08:48.255Z,11.68
2023-04-26T00:11:17.833Z,14.63
2023-04-26T00:13:47.307Z,15.53
2023-04-26T00:16:17.632Z,12.07
2023-04-26T00:18:48.265Z,12.73
2023-04-26T00:21:17.629Z,18.17
2023-04-26T00:23:45.498Z,16.95
2023-04-26T00:26:13.088Z,23.25
2023-04-26T00:28:41.567Z,14.25
2023-04-26T00:31:09.204Z,16.40
2023-04-26T00:33:37.066Z,14.15
2023-04-26T00:36:04.905Z,10.60
2023-04-26T00:38:32.688Z,10.68
2023-04-26T00:41:00.428Z,14.40
2023-04-26T00:43:28.549Z,16.95
2023-04-26T00:45:57.185Z,10.57
2023-04-26T00:48:28.014Z,14.30
2023-04-26T00:50:56.899Z,9.88
2023-04-26T00:53:25.028Z,13.57
2023-04-26T00:55:53.796Z,9.98
2023-04-26T00:58:21.849Z,9.93
2023-04-26T01:00:51.848Z,13.70
2023-04-26T01:03:22.783Z,11.40
2023-04-26T01:05:51.668Z,10.27
2023-04-26T01:08:22.341Z,12.80
2023-04-26T01:10:51.460Z,9.55
2023-04-26T01:13:19.975Z,12.52
2023-04-26T01:15:50.903Z,10.25
2023-04-26T01:18:20.438Z,8.95
2023-04-26T01:20:52.298Z,10.60
2023-04-26T01:23:20.169Z,9.95
2023-04-26T01:25:50.193Z,11.13
2023-04-26T01:28:18.616Z,10.13
2023-04-26T01:30:47.273Z,13.32
2023-04-26T01:33:16.864Z,9.38
2023-04-26T01:35:45.248Z,12.57
2023-04-26T01:38:14.595Z,14.05
2023-04-26T01:40:47.916Z,10.75
2023-04-26T01:43:17.876Z,12.05
2023-04-26T01:45:51.459Z,11.55
2023-04-26T01:48:33.474Z,11.57
2023-04-26T01:53:30.681Z,11.70
2023-04-26T01:56:02.875Z,12.73
2023-04-26T01:58:31.554Z,13.82
2023-04-26T02:01:06.128Z,9.75
2023-04-26T02:03:34.174Z,9.23
2023-04-26T02:06:02.324Z,8.68
2023-04-26T02:08:31.270Z,10.80
2023-04-26T02:10:59.230Z,10.00
2023-04-26T02:13:27.142Z,18.30
2023-04-26T02:15:56.020Z,8.07
2023-04-26T02:18:23.888Z,10.32
2023-04-26T02:20:51.588Z,11.15
2023-04-26T02:23:19.662Z,13.63
2023-04-26T02:25:49.856Z,13.05
2023-04-26T02:28:19.212Z,8.90
2023-04-26T02:30:51.662Z,10.68
2023-04-26T02:33:20.684Z,10.20
2023-04-26T02:35:49.851Z,15.95
2023-04-26T02:38:19.592Z,17.17
2023-04-26T02:40:49.709Z,15.30
2023-04-26T02:43:18.953Z,16.27
2023-04-26T02:45:48.637Z,12.23
2023-04-26T02:48:17.061Z,13.90
2023-04-26T02:50:44.829Z,11.52
2023-04-26T02:53:18.568Z,15.68
2023-04-26T02:55:47.668Z,11.77
2023-04-26T02:58:15.734Z,14.10
2023-04-26T03:00:49.484Z,18.77
2023-04-26T03:03:20.129Z,11.07
2023-04-26T03:05:51.155Z,13.90
2023-04-26T03:08:20.163Z,12.75
2023-04-26T03:10:49.564Z,13.65
2023-04-26T03:13:18.335Z,16.95
2023-04-26T03:15:48.943Z,17.95
2023-04-26T03:18:17.536Z,19.90
2023-04-26T03:20:52.475Z,19.90
2023-04-26T03:23:25.702Z,14.30
2023-04-26T03:25:54.606Z,17.70
2023-04-26T03:28:22.636Z,14.05
2023-04-26T03:30:51.917Z,17.58
2023-04-26T03:35:52.681Z,20.90
2023-04-26T03:38:20.491Z,11.52
2023-04-26T03:40:51.292Z,15.80
2023-04-26T03:43:19.853Z,14.00
2023-04-26T03:45:50.810Z,16.98
2023-04-26T03:48:19.663Z,19.50
2023-04-26T03:50:50.450Z,17.13
2023-04-26T03:53:18.925Z,12.82
2023-04-26T03:55:47.973Z,16.70
2023-04-26T03:58:17.044Z,13.15
2023-04-26T04:00:45.291Z,13.05
2023-04-26T04:03:13.212Z,20.13
2023-04-26T04:05:41.957Z,15.48
2023-04-26T04:08:09.944Z,16.33
2023-04-26T04:10:38.167Z,22.88
2023-04-26T04:13:06.525Z,22.95
2023-04-26T04:15:34.664Z,18.73
2023-04-26T04:18:02.848Z,20.73
2023-04-26T04:20:30.670Z,21.73
2023-04-26T04:22:58.863Z,20.35
2023-04-26T04:25:26.744Z,16.90
2023-04-26T04:27:55.575Z,15.48
2023-04-26T04:30:24.768Z,15.05
2023-04-26T04:32:52.514Z,13.93
2023-04-26T04:35:20.229Z,18.40
2023-04-26T04:37:50.429Z,21.27
2023-04-26T04:40:18.712Z,17.25
2023-04-26T04:42:50.245Z,24.92
2023-04-26T04:45:21.888Z,19.33
2023-04-26T04:47:54.385Z,19.70
2023-04-26T04:50:23.526Z,19.40
2023-04-26T04:52:51.207Z,17.02
2023-04-26T04:55:20.096Z,22.80
2023-04-26T04:57:49.784Z,20.23
2023-04-26T05:00:21.831Z,28.10
2023-04-26T05:03:15.495Z,16.48
2023-04-26T05:05:44.405Z,19.35
2023-04-26T05:08:12.623Z,17.90
2023-04-26T05:10:40.984Z,20.60
2023-04-26T05:13:08.626Z,23.48
2023-04-26T05:15:40.242Z,21.35
2023-04-26T05:18:08.844Z,25.17
2023-04-26T05:20:37.318Z,24.73
2023-04-26T05:23:05.906Z,25.55
2023-04-26T05:25:38.123Z,29.95
2023-04-26T05:28:28.148Z,21.67
2023-04-26T05:31:21.514Z,26.13
2023-04-26T05:34:23.191Z,23.65
2023-04-26T05:36:56.478Z,25.13
2023-04-26T05:39:26.009Z,24.02
2023-04-26T05:41:56.009Z,27.98
2023-04-26T05:44:23.590Z,28.30
2023-04-26T05:46:52.291Z,29.70
2023-04-26T05:49:21.106Z,33.22
2023-04-26T05:51:55.462Z,29.90
2023-04-26T05:54:23.351Z,54.92
2023-04-26T05:56:52.377Z,29.10
2023-04-26T05:59:21.303Z,37.50
2023-04-26T06:01:49.671Z,30.42
2023-04-26T06:04:18.794Z,39.22
2023-04-26T06:06:58.772Z,42.05
2023-04-26T06:09:26.378Z,29.17
2023-04-26T06:11:54.884Z,37.00
2023-04-26T06:14:30.096Z,30.20
2023-04-26T06:17:04.310Z,38.35
2023-04-26T06:19:32.967Z,37.83
2023-04-26T06:22:01.614Z,33.22
2023-04-26T06:24:29.282Z,32.83
2023-04-26T06:27:03.812Z,36.80
2023-04-26T06:29:35.764Z,35.75
2023-04-26T06:32:05.433Z,39.13
2023-04-26T06:37:01.877Z,32.10
2023-04-26T06:39:30.452Z,48.72
2023-04-26T06:41:58.630Z,36.20
2023-04-26T06:44:30.942Z,36.63
2023-04-26T06:47:03.800Z,35.50
2023-04-26T06:49:32.741Z,39.35
2023-04-26T06:52:00.508Z,38.75
2023-04-26T06:54:31.763Z,38.88
2023-04-26T06:57:01.348Z,26.88
2023-04-26T06:59:29.397Z,33.23
2023-04-26T07:01:58.245Z,35.15
2023-04-26T07:04:25.930Z,32.10
2023-04-26T07:06:54.611Z,27.65
2023-04-26T07:09:23.853Z,26.33
2023-04-26T07:11:52.261Z,24.47
2023-04-26T07:14:20.118Z,26.77
2023-04-26T07:16:50.739Z,26.65
2023-04-26T07:19:19.833Z,27.63
2023-04-26T07:21:49.315Z,31.50
2023-04-26T07:24:17.821Z,29.37
2023-04-26T07:26:45.840Z,25.52
2023-04-26T07:29:14.530Z,22.02
2023-04-26T07:31:42.113Z,24.75
2023-04-26T07:34:09.763Z,23.73
2023-04-26T07:36:37.510Z,26.45
2023-04-26T07:39:06.782Z,15.38
2023-04-26T07:41:36.711Z,17.02
2023-04-26T07:44:04.407Z,18.60
2023-04-26T07:46:34.685Z,18.50
2023-04-26T07:49:02.564Z,13.50
2023-04-26T07:51:30.251Z,13.90
2023-04-26T07:53:59.721Z,14.60
2023-04-26T07:56:30.632Z,19.55
2023-04-26T07:58:58.381Z,11.27
2023-04-26T08:01:26.530Z,14.20
2023-04-26T08:03:59.351Z,16.35
2023-04-26T08:06:29.500Z,17.60
2023-04-26T08:09:00.472Z,14.40
2023-04-26T08:11:28.134Z,14.88
2023-04-26T08:13:56.842Z,14.18
2023-04-26T08:16:24.541Z,10.73
2023-04-26T08:18:52.710Z,16.25
2023-04-26T08:21:20.314Z,17.13
2023-04-26T08:23:48.417Z,12.07
2023-04-26T08:26:17.339Z,14.93
2023-04-26T08:28:45.513Z,17.92
2023-04-26T08:31:13.861Z,12.05
2023-04-26T08:33:42.742Z,12.07
2023-04-26T08:36:10.853Z,12.00
2023-04-26T08:38:38.794Z,10.48
2023-04-26T08:41:06.515Z,11.85
2023-04-26T08:43:38.828Z,6.55
2023-04-26T08:46:09.350Z,10.60
2023-04-26T08:51:06.070Z,12.07
2023-04-26T08:53:36.078Z,7.40
2023-04-26T08:56:06.733Z,9.20
2023-04-26T09:01:03.946Z,10.20
2023-04-26T09:03:35.188Z,6.47
2023-04-26T09:06:09.655Z,8.25
2023-04-26T09:08:39.545Z,11.32
2023-04-26T09:11:07.544Z,8.25
2023-04-26T09:13:37.406Z,10.88
2023-04-26T09:16:05.761Z,16.30
2023-04-26T09:18:34.289Z,12.10
2023-04-26T09:21:09.609Z,11.75
2023-04-26T09:23:37.749Z,7.55
2023-04-26T09:26:21.780Z,9.02
2023-04-26T09:28:51.231Z,10.68
2023-04-26T09:31:36.930Z,6.53
2023-04-26T09:34:05.182Z,8.07
2023-04-26T09:36:33.046Z,7.03
2023-04-26T09:39:01.205Z,9.95
2023-04-26T09:41:46.773Z,8.90
2023-04-26T09:44:25.524Z,7.13
2023-04-26T09:47:00.297Z,12.75
2023-04-26T09:49:52.598Z,6.50
2023-04-26T09:52:21.569Z,9.88
2023-04-26T09:54:55.023Z,14.13
2023-04-26T09:57:29.323Z,10.65
2023-04-26T10:00:01.179Z,11.38
2023-04-26T10:02:30.143Z,7.72
2023-04-26T10:05:00.356Z,9.02
2023-04-26T10:07:31.792Z,9.73
2023-04-26T10:09:59.621Z,8.27
2023-04-26T10:12:30.320Z,10.48
2023-04-26T10:14:58.793Z,8.45
2023-04-26T10:17:27.759Z,6.30
2023-04-26T10:20:00.280Z,5.47
2023-04-26T10:22:30.113Z,8.20
2023-04-26T10:24:58.105Z,9.88
2023-04-26T10:27:51.201Z,7.90
2023-04-26T10:30:23.270Z,6.03
2023-04-26T10:32:54.403Z,8.27
2023-04-26T10:35:25.719Z,7.78
2023-04-26T10:38:03.072Z,7.57
2023-04-26T10:40:35.738Z,6.32
2023-04-26T10:43:11.530Z,10.65
2023-04-26T10:45:48.645Z,6.43
2023-04-26T10:48:31.221Z,6.85
2023-04-26T10:51:02.190Z,8.88
2023-04-26T10:53:52.804Z,6.65
2023-04-26T10:56:27.431Z,5.43
2023-04-26T11:01:42.028Z,12.25
2023-04-26T11:04:13.360Z,8.00
2023-04-26T11:06:51.340Z,8.50
2023-04-26T11:09:42.636Z,5.13
2023-04-26T11:12:14.376Z,12.85
2023-04-26T11:14:45.541Z,9.98
2023-04-26T11:17:14.055Z,8.85
2023-04-26T11:19:49.215Z,8.10
2023-04-26T11:22:24.824Z,10.13
2023-04-26T11:24:53.414Z,9.15
2023-04-26T11:27:30.272Z,6.38
2023-04-26T11:30:03.674Z,9.52
2023-04-26T11:32:43.841Z,10.80
2023-04-26T11:35:11.567Z,7.65
2023-04-26T11:37:43.205Z,5.40
2023-04-26T11:40:14.399Z,8.07
2023-04-26T11:42:42.536Z,6.25
2023-04-26T11:45:10.761Z,6.22
2023-04-26T11:47:38.976Z,8.50
2023-04-26T11:50:08.032Z,10.20
2023-04-26T11:52:35.725Z,7.10
2023-04-26T11:55:07.345Z,8.43
2023-04-26T11:57:37.208Z,7.00
2023-04-26T12:00:12.180Z,8.87
2023-04-26T12:02:40.317Z,7.03
2023-04-26T12:05:09.388Z,7.85
2023-04-26T12:07:38.453Z,8.27
2023-04-26T12:10:15.221Z,15.60
2023-04-26T12:12:50.130Z,7.85
2023-04-26T12:15:19.580Z,8.23
2023-04-26T12:17:57.822Z,9.70
2023-04-26T12:20:29.558Z,9.18
2023-04-26T12:23:00.788Z,9.48
2023-04-26T12:25:29.170Z,11.57
2023-04-26T12:27:57.483Z,5.40
2023-04-26T12:30:27.225Z,5.13
2023-04-26T12:35:42.593Z,6.70
2023-04-26T12:38:12.577Z,8.85
2023-04-26T12:40:41.903Z,6.22
2023-04-26T12:43:10.893Z,8.20
2023-04-26T12:45:39.741Z,9.20
2023-04-26T12:48:09.720Z,6.85
2023-04-26T12:50:37.916Z,6.53
2023-04-26T12:53:05.644Z,8.68
2023-04-26T12:55:33.615Z,6.20
2023-04-26T12:58:01.184Z,9.77
2023-04-26T13:00:29.348Z,6.30
2023-04-26T13:02:57.137Z,7.50
2023-04-26T13:05:25.905Z,16.05
2023-04-26T13:07:53.553Z,7.05
2023-04-26T13:10:24.577Z,6.88
2023-04-26T13:12:54.168Z,6.47
2023-04-26T13:15:22.036Z,7.03
2023-04-26T13:17:50.576Z,10.00
2023-04-26T13:20:19.231Z,11.63
2023-04-26T13:22:48.010Z,8.15
2023-04-26T13:25:18.767Z,4.57
2023-04-26T13:30:17.822Z,9.77
2023-04-26T13:32:45.797Z,5.32
2023-04-26T13:35:15.534Z,5.70
2023-04-26T13:37:43.204Z,7.30
2023-04-26T13:40:11.442Z,7.38
2023-04-26T13:42:39.776Z,9.13
2023-04-26T13:45:14.031Z,7.93
2023-04-26T13:47:42.023Z,8.82
2023-04-26T13:50:14.467Z,11.27
2023-04-26T13:52:42.208Z,13.35
2023-04-26T13:55:10.161Z,11.00
2023-04-26T13:57:38.470Z,9.52
2023-04-26T14:00:08.712Z,11.27
2023-04-26T14:02:40.118Z,7.28
2023-04-26T14:05:09.636Z,8.48
2023-04-26T14:07:37.661Z,8.05
2023-04-26T14:10:05.340Z,5.80
2023-04-26T14:12:34.157Z,5.30
2023-04-26T14:15:04.498Z,9.25
2023-04-26T14:17:34.555Z,10.48
2023-04-26T14:20:02.184Z,9.23
2023-04-26T14:22:31.835Z,5.82
2023-04-26T14:25:04.270Z,6.13
2023-04-26T14:27:31.910Z,6.43
2023-04-26T14:29:59.394Z,9.50
2023-04-26T14:32:27.230Z,8.70
2023-04-26T14:34:56.944Z,8.02
2023-04-26T14:37:25.041Z,8.60
2023-04-26T14:39:56.742Z,6.32
2023-04-26T14:42:24.963Z,12.70
2023-04-26T14:44:53.138Z,7.40
2023-04-26T14:47:21.132Z,5.80
2023-04-26T14:49:51.272Z,8.50
2023-04-26T14:52:19.963Z,10.38
2023-04-26T14:54:49.108Z,7.90
2023-04-26T14:57:17.662Z,8.48
2023-04-26T14:59:45.384Z,4.32
2023-04-26T15:02:13.255Z,10.45
2023-04-26T15:04:41.260Z,7.95
2023-04-26T15:07:15.234Z,10.13
2023-04-26T15:09:51.320Z,7.80
2023-04-26T15:12:21.834Z,7.93
2023-04-26T15:17:22.084Z,7.00
2023-04-26T15:19:50.116Z,4.43
2023-04-26T15:22:19.683Z,8.43
2023-04-26T15:24:51.230Z,14.00
2023-04-26T15:27:19.545Z,7.47
2023-04-26T15:29:48.394Z,7.43
2023-04-26T15:32:17.862Z,6.15
2023-04-26T15:34:46.087Z,9.80
2023-04-26T15:37:15.734Z,5.70
2023-04-26T15:39:43.715Z,9.35
2023-04-26T15:42:11.599Z,7.95
2023-04-26T15:44:39.430Z,5.43
2023-04-26T15:47:07.561Z,5.88
2023-04-26T15:49:35.509Z,7.43
2023-04-26T15:52:03.146Z,7.45
2023-04-26T15:54:31.061Z,6.47
2023-04-26T15:56:59.217Z,7.95
2023-04-26T15:59:27.484Z,4.25
2023-04-26T16:01:55.343Z,7.25
2023-04-26T16:04:23.781Z,6.95
2023-04-26T16:06:51.942Z,8.32
2023-04-26T16:11:51.125Z,12.65
2023-04-26T16:14:19.295Z,6.43
2023-04-26T16:16:48.082Z,4.72
2023-04-26T16:19:19.396Z,7.97
2023-04-26T16:21:48.162Z,4.30
2023-04-26T16:24:19.279Z,6.28
2023-04-26T16:26:47.892Z,6.20
2023-04-26T16:29:15.661Z,5.28
2023-04-26T16:31:44.273Z,10.98
2023-04-26T16:34:13.668Z,9.57
2023-04-26T16:36:41.621Z,8.93
2023-04-26T16:39:09.246Z,7.00
2023-04-26T16:41:38.808Z,7.50
2023-04-26T16:44:07.006Z,8.07
2023-04-26T16:46:38.374Z,7.78
2023-04-26T16:49:09.968Z,6.28
2023-04-26T16:51:38.995Z,5.28
2023-04-26T16:54:07.219Z,4.68
2023-04-26T16:56:34.968Z,7.85
2023-04-26T16:59:02.510Z,12.45
2023-04-26T17:01:30.590Z,6.28
2023-04-26T17:03:58.581Z,5.13
2023-04-26T17:06:26.355Z,5.45
2023-04-26T17:08:54.140Z,11.00
2023-04-26T17:11:21.619Z,9.18
2023-04-26T17:13:49.451Z,6.63
2023-04-26T17:16:18.808Z,8.05
2023-04-26T17:18:48.342Z,7.80
2023-04-26T17:21:19.082Z,7.40
2023-04-26T17:23:49.381Z,9.32
2023-04-26T17:26:18.924Z,9.32
2023-04-26T17:28:49.346Z,7.23
2023-04-26T17:31:21.181Z,7.30
2023-04-26T17:33:53.243Z,7.60
2023-04-26T17:36:21.522Z,7.15
2023-04-26T17:38:51.297Z,5.30
2023-04-26T17:41:25.480Z,9.10
2023-04-26T17:43:53.733Z,8.25
2023-04-26T17:46:24.140Z,7.75
2023-04-26T17:48:52.347Z,6.30
2023-04-26T17:51:20.451Z,7.70
2023-04-26T17:53:50.616Z,6.22
2023-04-26T17:56:21.049Z,8.25
2023-04-26T17:58:49.565Z,8.27
2023-04-26T18:01:22.816Z,6.70
2023-04-26T18:03:53.750Z,5.95
2023-04-26T18:06:22.760Z,6.35
2023-04-26T18:08:50.525Z,7.38
2023-04-26T18:11:21.281Z,6.88
2023-04-26T18:13:49.325Z,8.02
2023-04-26T18:16:19.002Z,5.88
2023-04-26T18:18:51.009Z,6.47
2023-04-26T18:21:19.802Z,6.75
2023-04-26T18:23:48.826Z,10.10
2023-04-26T18:26:19.375Z,13.00
2023-04-26T18:31:14.879Z,8.07
2023-04-26T18:33:42.510Z,12.00
2023-04-26T18:36:13.077Z,23.27
2023-04-26T18:38:40.981Z,14.60
2023-04-26T18:41:08.760Z,10.45
2023-04-26T18:43:36.424Z,7.85
2023-04-26T18:46:03.974Z,9.30
2023-04-26T18:48:31.513Z,8.68
2023-04-26T18:50:59.134Z,7.93
2023-04-26T18:53:26.875Z,7.57
2023-04-26T18:55:54.465Z,7.90
2023-04-26T18:58:22.229Z,10.30
2023-04-26T19:00:50.319Z,8.95
2023-04-26T19:03:19.609Z,10.05
2023-04-26T19:05:48.557Z,6.03
2023-04-26T19:08:19.670Z,9.98
2023-04-26T19:10:52.641Z,7.80
2023-04-26T19:13:20.875Z,10.10
2023-04-26T19:15:50.018Z,6.22
2023-04-26T19:18:18.300Z,5.85
2023-04-26T19:20:57.349Z,7.63
2023-04-26T19:23:24.753Z,9.38
2023-04-26T19:25:52.893Z,7.32
2023-04-26T19:28:21.041Z,6.15
2023-04-26T19:30:50.111Z,8.35
2023-04-26T19:33:21.997Z,8.25
2023-04-26T19:35:54.263Z,6.45
2023-04-26T19:38:21.830Z,7.72
2023-04-26T19:40:53.276Z,7.22
2023-04-26T19:43:21.146Z,9.00
2023-04-26T19:45:52.586Z,9.52
2023-04-26T19:48:21.163Z,7.63
2023-04-26T19:50:49.986Z,8.07
2023-04-26T19:53:18.938Z,9.57
2023-04-26T19:55:47.474Z,6.32
2023-04-26T19:58:21.642Z,9.02
2023-04-26T20:00:51.195Z,9.15
2023-04-26T20:03:19.578Z,5.93
2023-04-26T20:05:48.601Z,12.88
2023-04-26T20:08:17.989Z,9.98
2023-04-26T20:10:45.686Z,10.75
2023-04-26T20:13:13.321Z,7.50
2023-04-26T20:15:47.615Z,9.90
2023-04-26T20:18:16.956Z,6.97
2023-04-26T20:20:45.012Z,7.88
2023-04-26T20:23:13.023Z,10.35
2023-04-26T20:25:43.427Z,9.55
2023-04-26T20:28:11.239Z,8.03
2023-04-26T20:30:39.755Z,7.47
2023-04-26T20:33:08.488Z,9.02
2023-04-26T20:35:36.037Z,9.48
2023-04-26T20:38:04.083Z,7.45
2023-04-26T20:40:32.105Z,8.60
2023-04-26T20:42:59.685Z,6.57
2023-04-26T20:45:27.597Z,10.30
2023-04-26T20:47:55.326Z,9.05
2023-04-26T20:50:23.246Z,8.25
2023-04-26T20:52:50.871Z,7.20
2023-04-26T20:55:21.870Z,7.50
2023-04-26T20:57:50.033Z,6.25
2023-04-26T21:00:21.379Z,8.05
2023-04-26T21:02:53.052Z,7.63
2023-04-26T21:05:21.039Z,8.25
2023-04-26T21:07:49.486Z,6.10
2023-04-26T21:10:18.631Z,5.65
2023-04-26T21:12:49.490Z,7.80
2023-04-26T21:15:18.692Z,6.88
2023-04-26T21:17:47.498Z,5.90
2023-04-26T21:20:19.464Z,8.88
2023-04-26T21:22:50.273Z,6.85
2023-04-26T21:25:19.974Z,5.80
2023-04-26T21:27:54.854Z,7.03
2023-04-26T21:30:23.084Z,10.00
2023-04-26T21:32:50.914Z,9.30
2023-04-26T21:35:20.194Z,10.77
2023-04-26T21:37:49.019Z,6.38
2023-04-26T21:40:19.708Z,7.43
2023-04-26T21:43:03.920Z,9.40
2023-04-26T21:45:32.209Z,12.77
2023-04-26T21:48:00.312Z,8.75
2023-04-26T21:50:28.713Z,4.35
2023-04-26T21:52:59.681Z,7.90
2023-04-26T21:55:27.497Z,7.00
2023-04-26T21:57:57.608Z,9.48
2023-04-26T22:00:28.040Z,6.35
2023-04-26T22:02:55.932Z,5.82
2023-04-26T22:05:26.039Z,6.30
2023-04-26T22:07:57.671Z,12.48
2023-04-26T22:10:25.825Z,6.88
2023-04-26T22:12:53.633Z,7.68
2023-04-26T22:15:21.609Z,8.73
2023-04-26T22:17:49.809Z,7.78
2023-04-26T22:20:20.324Z,9.43
2023-04-26T22:25:19.170Z,11.30
2023-04-26T22:27:50.143Z,9.82
2023-04-26T22:30:24.560Z,8.18
2023-04-26T22:32:54.957Z,4.30
2023-04-26T22:35:23.229Z,7.35
2023-04-26T22:37:51.305Z,11.20
2023-04-26T22:40:22.049Z,10.45
2023-04-26T22:42:50.113Z,6.03
2023-04-26T22:45:19.380Z,13.20
2023-04-26T22:47:47.637Z,8.13
2023-04-26T22:50:16.112Z,11.60
2023-04-26T22:52:45.790Z,7.88
2023-04-26T22:55:13.255Z,11.25
2023-04-26T22:57:44.664Z,8.75
2023-04-26T23:00:12.812Z,10.73
2023-04-26T23:02:40.876Z,9.25
2023-04-26T23:05:14.825Z,10.50
2023-04-26T23:07:45.705Z,8.73
2023-04-26T23:10:13.388Z,9.80
2023-04-26T23:12:41.805Z,12.68
2023-04-26T23:15:09.761Z,8.75
2023-04-26T23:17:37.905Z,8.43
2023-04-26T23:20:12.134Z,7.35
2023-04-26T23:22:40.954Z,8.55
2023-04-26T23:25:11.243Z,11.55
2023-04-26T23:27:38.872Z,8.40
2023-04-26T23:30:07.223Z,8.27
2023-04-26T23:32:38.566Z,13.70
2023-04-26T23:35:06.787Z,14.88
2023-04-26T23:37:34.577Z,9.45
2023-04-26T23:40:02.152Z,13.35
2023-04-26T23:42:29.852Z,10.68
2023-04-26T23:44:58.167Z,9.68
2023-04-26T23:47:26.205Z,10.93
2023-04-26T23:49:53.802Z,7.88
2023-04-26T23:52:21.556Z,13.15
2023-04-26T23:54:50.730Z,18.40
2023-04-26T23:57:21.635Z,12.32
2023-04-26T23:59:50.047Z,8.93
